sensor_id;sensor_type;location;lat;lon;timestamp;P1;durP1;ratioP1;P2;durP2;ratioP2
36551;SDS011;22559;54.176;12.102;2022-11-12T00:00:58;11.83;;;8.53;;
36551;SDS011;22559;54.176;12.102;2022-11-12T00:03:24;10.80;;;8.17;;
36551;SDS011;22559;54.176;12.102;2022-11-12T00:05:50;11.93;;;7.60;;
36551;SDS011;22559;54.176;12.102;2022-11-12T00:08:17;15.17;;;8.70;;
36551;SDS011;22559;54.176;12.102;2022-11-12T00:10:43;14.30;;;7.57;;
36551;SDS011;22559;54.176;12.102;2022-11-12T00:13:09;11.03;;;7.43;;
36551;SDS011;22559;54.176;12.102;2022-11-12T00:15:35;12.70;;;8.10;;
36551;SDS011;22559;54.176;12.102;2022-11-12T00:18:00;15.57;;;7.33;;
36551;SDS011;22559;54.176;12.102;2022-11-12T00:20:26;10.60;;;6.80;;
36551;SDS011;22559;54.176;12.102;2022-11-12T00:22:51;14.27;;;7.27;;
36551;SDS011;22559;54.176;12.102;2022-11-12T00:25:17;11.10;;;6.80;;
36551;SDS011;22559;54.176;12.102;2022-11-12T00:27:43;11.43;;;7.33;;
36551;SDS011;22559;54.176;12.102;2022-11-12T00:30:09;10.80;;;6.93;;
36551;SDS011;22559;54.176;12.102;2022-11-12T00:32:35;10.83;;;7.13;;
36551;SDS011;22559;54.176;12.102;2022-11-12T00:35:02;11.63;;;7.07;;
36551;SDS011;22559;54.176;12.102;2022-11-12T00:37:31;14.23;;;7.47;;
36551;SDS011;22559;54.176;12.102;2022-11-12T00:39:56;8.93;;;6.77;;
36551;SDS011;22559;54.176;12.102;2022-11-12T00:42:22;11.63;;;7.37;;
36551;SDS011;22559;54.176;12.102;2022-11-12T00:44:49;12.17;;;7.40;;
36551;SDS011;22559;54.176;12.102;2022-11-12T00:47:15;11.13;;;7.13;;
36551;SDS011;22559;54.176;12.102;2022-11-12T00:49:41;15.00;;;8.10;;
36551;SDS011;22559;54.176;12.102;2022-11-12T00:52:06;9.63;;;6.97;;
36551;SDS011;22559;54.176;12.102;2022-11-12T00:54:32;14.77;;;7.50;;
36551;SDS011;22559;54.176;12.102;2022-11-12T00:56:57;13.97;;;7.67;;
36551;SDS011;22559;54.176;12.102;2022-11-12T00:59:24;11.60;;;7.10;;
36551;SDS011;22559;54.176;12.102;2022-11-12T01:01:50;11.93;;;7.40;;
36551;SDS011;22559;54.176;12.102;2022-11-12T01:04:15;15.63;;;7.50;;
36551;SDS011;22559;54.176;12.102;2022-11-12T01:06:41;13.13;;;7.10;;
36551;SDS011;22559;54.176;12.102;2022-11-12T01:09:07;11.60;;;6.83;;
36551;SDS011;22559;54.176;12.102;2022-11-12T01:11:33;10.13;;;7.03;;
36551;SDS011;22559;54.176;12.102;2022-11-12T01:14:00;12.27;;;7.50;;
36551;SDS011;22559;54.176;12.102;2022-11-12T01:16:29;10.47;;;7.13;;
36551;SDS011;22559;54.176;12.102;2022-11-12T01:18:59;11.77;;;6.83;;
36551;SDS011;22559;54.176;12.102;2022-11-12T01:21:28;13.07;;;7.03;;
36551;SDS011;22559;54.176;12.102;2022-11-12T01:23:56;10.87;;;7.40;;
36551;SDS011;22559;54.176;12.102;2022-11-12T01:26:23;11.03;;;7.27;;
36551;SDS011;22559;54.176;12.102;2022-11-12T01:28:52;9.87;;;7.13;;
36551;SDS011;22559;54.176;12.102;2022-11-12T01:31:19;12.90;;;6.93;;
36551;SDS011;22559;54.176;12.102;2022-11-12T01:33:48;11.43;;;7.20;;
36551;SDS011;22559;54.176;12.102;2022-11-12T01:36:17;9.83;;;6.63;;
36551;SDS011;22559;54.176;12.102;2022-11-12T01:38:43;9.73;;;6.60;;
36551;SDS011;22559;54.176;12.102;2022-11-12T01:41:14;12.03;;;7.53;;
36551;SDS011;22559;54.176;12.102;2022-11-12T01:43:42;12.53;;;8.33;;
36551;SDS011;22559;54.176;12.102;2022-11-12T01:46:19;16.90;;;7.50;;
36551;SDS011;22559;54.176;12.102;2022-11-12T01:48:55;14.63;;;7.67;;
36551;SDS011;22559;54.176;12.102;2022-11-12T01:51:26;12.87;;;7.60;;
36551;SDS011;22559;54.176;12.102;2022-11-12T01:54:00;13.00;;;8.10;;
36551;SDS011;22559;54.176;12.102;2022-11-12T01:56:30;12.50;;;7.57;;
36551;SDS011;22559;54.176;12.102;2022-11-12T01:59:04;14.43;;;8.43;;
36551;SDS011;22559;54.176;12.102;2022-11-12T02:01:57;15.27;;;7.80;;
36551;SDS011;22559;54.176;12.102;2022-11-12T02:04:24;11.83;;;8.13;;
36551;SDS011;22559;54.176;12.102;2022-11-12T02:06:51;14.50;;;7.47;;
36551;SDS011;22559;54.176;12.102;2022-11-12T02:09:19;13.30;;;7.30;;
36551;SDS011;22559;54.176;12.102;2022-11-12T02:11:44;12.80;;;7.53;;
36551;SDS011;22559;54.176;12.102;2022-11-12T02:14:10;10.53;;;7.57;;
36551;SDS011;22559;54.176;12.102;2022-11-12T02:16:40;12.83;;;7.60;;
36551;SDS011;22559;54.176;12.102;2022-11-12T02:19:10;9.33;;;7.23;;
36551;SDS011;22559;54.176;12.102;2022-11-12T02:21:37;12.57;;;7.17;;
36551;SDS011;22559;54.176;12.102;2022-11-12T02:26:36;13.10;;;7.30;;
36551;SDS011;22559;54.176;12.102;2022-11-12T02:29:05;12.60;;;7.00;;
36551;SDS011;22559;54.176;12.102;2022-11-12T02:31:31;13.20;;;7.07;;
36551;SDS011;22559;54.176;12.102;2022-11-12T02:33:56;14.20;;;6.83;;
36551;SDS011;22559;54.176;12.102;2022-11-12T02:36:22;10.03;;;6.23;;
36551;SDS011;22559;54.176;12.102;2022-11-12T02:38:48;12.73;;;7.40;;
36551;SDS011;22559;54.176;12.102;2022-11-12T02:41:14;10.93;;;6.50;;
36551;SDS011;22559;54.176;12.102;2022-11-12T02:43:40;11.73;;;6.83;;
36551;SDS011;22559;54.176;12.102;2022-11-12T02:46:05;10.60;;;6.87;;
36551;SDS011;22559;54.176;12.102;2022-11-12T02:48:31;11.67;;;7.17;;
36551;SDS011;22559;54.176;12.102;2022-11-12T02:50:57;12.60;;;7.00;;
36551;SDS011;22559;54.176;12.102;2022-11-12T02:53:23;12.13;;;7.27;;
36551;SDS011;22559;54.176;12.102;2022-11-12T02:55:48;15.83;;;7.30;;
36551;SDS011;22559;54.176;12.102;2022-11-12T02:58:14;9.33;;;6.57;;
36551;SDS011;22559;54.176;12.102;2022-11-12T03:00:40;17.07;;;6.97;;
36551;SDS011;22559;54.176;12.102;2022-11-12T03:03:06;13.70;;;7.00;;
36551;SDS011;22559;54.176;12.102;2022-11-12T03:05:32;10.80;;;6.90;;
36551;SDS011;22559;54.176;12.102;2022-11-12T03:08:03;14.10;;;7.20;;
36551;SDS011;22559;54.176;12.102;2022-11-12T03:10:30;13.87;;;7.23;;
36551;SDS011;22559;54.176;12.102;2022-11-12T03:12:57;11.87;;;7.13;;
36551;SDS011;22559;54.176;12.102;2022-11-12T03:15:24;15.10;;;7.97;;
36551;SDS011;22559;54.176;12.102;2022-11-12T03:17:51;13.57;;;7.80;;
36551;SDS011;22559;54.176;12.102;2022-11-12T03:20:17;13.80;;;8.10;;
36551;SDS011;22559;54.176;12.102;2022-11-12T03:22:53;12.40;;;7.70;;
36551;SDS011;22559;54.176;12.102;2022-11-12T03:25:23;15.83;;;8.60;;
36551;SDS011;22559;54.176;12.102;2022-11-12T03:28:11;9.80;;;7.63;;
36551;SDS011;22559;54.176;12.102;2022-11-12T03:30:37;17.60;;;8.77;;
36551;SDS011;22559;54.176;12.102;2022-11-12T03:33:04;16.93;;;8.90;;
36551;SDS011;22559;54.176;12.102;2022-11-12T03:35:31;16.77;;;9.10;;
36551;SDS011;22559;54.176;12.102;2022-11-12T03:37:58;17.17;;;9.70;;
36551;SDS011;22559;54.176;12.102;2022-11-12T03:40:24;18.87;;;9.70;;
36551;SDS011;22559;54.176;12.102;2022-11-12T03:42:50;18.10;;;9.97;;
36551;SDS011;22559;54.176;12.102;2022-11-12T03:45:16;14.40;;;9.80;;
36551;SDS011;22559;54.176;12.102;2022-11-12T03:47:44;20.23;;;11.43;;
36551;SDS011;22559;54.176;12.102;2022-11-12T03:50:12;13.77;;;9.17;;
36551;SDS011;22559;54.176;12.102;2022-11-12T03:52:43;19.20;;;10.57;;
36551;SDS011;22559;54.176;12.102;2022-11-12T03:55:13;18.13;;;10.07;;
36551;SDS011;22559;54.176;12.102;2022-11-12T03:57:39;17.77;;;10.23;;
36551;SDS011;22559;54.176;12.102;2022-11-12T04:00:06;19.03;;;10.67;;
36551;SDS011;22559;54.176;12.102;2022-11-12T04:02:32;13.43;;;10.03;;
36551;SDS011;22559;54.176;12.102;2022-11-12T04:04:58;15.27;;;9.73;;
36551;SDS011;22559;54.176;12.102;2022-11-12T04:07:43;15.90;;;9.27;;
36551;SDS011;22559;54.176;12.102;2022-11-12T04:10:27;17.50;;;10.07;;
36551;SDS011;22559;54.176;12.102;2022-11-12T04:12:56;16.70;;;9.97;;
36551;SDS011;22559;54.176;12.102;2022-11-12T04:15:40;17.23;;;10.13;;
36551;SDS011;22559;54.176;12.102;2022-11-12T04:18:06;17.37;;;9.80;;
36551;SDS011;22559;54.176;12.102;2022-11-12T04:20:50;14.20;;;9.43;;
36551;SDS011;22559;54.176;12.102;2022-11-12T04:23:34;18.10;;;9.57;;
36551;SDS011;22559;54.176;12.102;2022-11-12T04:26:00;17.17;;;9.47;;
36551;SDS011;22559;54.176;12.102;2022-11-12T04:28:44;15.37;;;9.30;;
36551;SDS011;22559;54.176;12.102;2022-11-12T04:31:28;15.37;;;10.07;;
36551;SDS011;22559;54.176;12.102;2022-11-12T04:33:54;18.87;;;10.93;;
36551;SDS011;22559;54.176;12.102;2022-11-12T04:36:40;18.67;;;9.57;;
36551;SDS011;22559;54.176;12.102;2022-11-12T04:39:05;16.83;;;10.73;;
36551;SDS011;22559;54.176;12.102;2022-11-12T04:41:31;15.20;;;9.50;;
36551;SDS011;22559;54.176;12.102;2022-11-12T04:44:15;13.33;;;9.27;;
36551;SDS011;22559;54.176;12.102;2022-11-12T04:46:59;14.90;;;9.80;;
36551;SDS011;22559;54.176;12.102;2022-11-12T04:49:24;16.23;;;9.97;;
36551;SDS011;22559;54.176;12.102;2022-11-12T04:51:50;14.83;;;9.20;;
36551;SDS011;22559;54.176;12.102;2022-11-12T04:54:31;16.60;;;9.17;;
36551;SDS011;22559;54.176;12.102;2022-11-12T04:56:58;14.40;;;9.17;;
36551;SDS011;22559;54.176;12.102;2022-11-12T04:59:24;15.23;;;9.17;;
36551;SDS011;22559;54.176;12.102;2022-11-12T05:01:50;15.47;;;8.93;;
36551;SDS011;22559;54.176;12.102;2022-11-12T05:04:16;13.90;;;9.43;;
36551;SDS011;22559;54.176;12.102;2022-11-12T05:06:41;17.27;;;9.77;;
36551;SDS011;22559;54.176;12.102;2022-11-12T05:09:20;17.13;;;10.00;;
36551;SDS011;22559;54.176;12.102;2022-11-12T05:11:47;14.00;;;9.60;;
36551;SDS011;22559;54.176;12.102;2022-11-12T05:14:13;18.13;;;10.40;;
36551;SDS011;22559;54.176;12.102;2022-11-12T05:16:38;15.57;;;10.17;;
36551;SDS011;22559;54.176;12.102;2022-11-12T05:19:04;14.87;;;10.10;;
36551;SDS011;22559;54.176;12.102;2022-11-12T05:21:30;15.33;;;9.17;;
36551;SDS011;22559;54.176;12.102;2022-11-12T05:24:14;18.40;;;10.17;;
36551;SDS011;22559;54.176;12.102;2022-11-12T05:26:40;14.80;;;9.63;;
36551;SDS011;22559;54.176;12.102;2022-11-12T05:29:06;18.50;;;9.50;;
36551;SDS011;22559;54.176;12.102;2022-11-12T05:31:32;15.90;;;9.00;;
36551;SDS011;22559;54.176;12.102;2022-11-12T05:33:58;15.33;;;9.13;;
36551;SDS011;22559;54.176;12.102;2022-11-12T05:36:24;20.17;;;9.73;;
36551;SDS011;22559;54.176;12.102;2022-11-12T05:38:50;14.27;;;9.63;;
36551;SDS011;22559;54.176;12.102;2022-11-12T05:41:15;14.47;;;9.93;;
36551;SDS011;22559;54.176;12.102;2022-11-12T05:43:41;18.90;;;10.50;;
36551;SDS011;22559;54.176;12.102;2022-11-12T05:46:07;17.60;;;10.07;;
36551;SDS011;22559;54.176;12.102;2022-11-12T05:48:33;16.93;;;10.43;;
36551;SDS011;22559;54.176;12.102;2022-11-12T05:50:58;15.20;;;10.37;;
36551;SDS011;22559;54.176;12.102;2022-11-12T05:53:24;19.13;;;10.50;;
36551;SDS011;22559;54.176;12.102;2022-11-12T05:55:50;23.27;;;11.13;;
36551;SDS011;22559;54.176;12.102;2022-11-12T05:58:16;19.57;;;11.00;;
36551;SDS011;22559;54.176;12.102;2022-11-12T06:00:42;20.20;;;11.50;;
36551;SDS011;22559;54.176;12.102;2022-11-12T06:03:08;17.93;;;10.47;;
36551;SDS011;22559;54.176;12.102;2022-11-12T06:05:35;17.23;;;10.60;;
36551;SDS011;22559;54.176;12.102;2022-11-12T06:08:01;20.30;;;11.00;;
36551;SDS011;22559;54.176;12.102;2022-11-12T06:10:29;18.63;;;10.70;;
36551;SDS011;22559;54.176;12.102;2022-11-12T06:12:55;15.60;;;9.97;;
36551;SDS011;22559;54.176;12.102;2022-11-12T06:15:21;20.73;;;10.77;;
36551;SDS011;22559;54.176;12.102;2022-11-12T06:17:48;19.93;;;10.97;;
36551;SDS011;22559;54.176;12.102;2022-11-12T06:20:14;17.67;;;10.93;;
36551;SDS011;22559;54.176;12.102;2022-11-12T06:22:40;16.77;;;9.83;;
36551;SDS011;22559;54.176;12.102;2022-11-12T06:25:05;17.00;;;10.47;;
36551;SDS011;22559;54.176;12.102;2022-11-12T06:27:31;18.23;;;10.13;;
36551;SDS011;22559;54.176;12.102;2022-11-12T06:29:57;18.53;;;10.37;;
36551;SDS011;22559;54.176;12.102;2022-11-12T06:32:23;16.00;;;10.03;;
36551;SDS011;22559;54.176;12.102;2022-11-12T06:34:49;19.43;;;10.40;;
36551;SDS011;22559;54.176;12.102;2022-11-12T06:37:16;19.13;;;10.13;;
36551;SDS011;22559;54.176;12.102;2022-11-12T06:39:42;17.50;;;11.07;;
36551;SDS011;22559;54.176;12.102;2022-11-12T06:42:08;19.90;;;11.03;;
36551;SDS011;22559;54.176;12.102;2022-11-12T06:44:33;17.23;;;11.70;;
36551;SDS011;22559;54.176;12.102;2022-11-12T06:47:00;19.80;;;10.37;;
36551;SDS011;22559;54.176;12.102;2022-11-12T06:49:26;19.50;;;10.80;;
36551;SDS011;22559;54.176;12.102;2022-11-12T06:51:52;18.73;;;10.27;;
36551;SDS011;22559;54.176;12.102;2022-11-12T06:54:17;19.87;;;11.77;;
36551;SDS011;22559;54.176;12.102;2022-11-12T06:56:43;16.53;;;10.73;;
36551;SDS011;22559;54.176;12.102;2022-11-12T06:59:09;17.90;;;10.57;;
36551;SDS011;22559;54.176;12.102;2022-11-12T07:01:34;18.87;;;10.60;;
36551;SDS011;22559;54.176;12.102;2022-11-12T07:04:00;23.10;;;13.60;;
36551;SDS011;22559;54.176;12.102;2022-11-12T07:06:27;20.00;;;11.57;;
36551;SDS011;22559;54.176;12.102;2022-11-12T07:08:52;19.07;;;10.63;;
36551;SDS011;22559;54.176;12.102;2022-11-12T07:11:18;16.60;;;10.90;;
36551;SDS011;22559;54.176;12.102;2022-11-12T07:13:44;17.27;;;10.27;;
36551;SDS011;22559;54.176;12.102;2022-11-12T07:16:11;18.07;;;10.83;;
36551;SDS011;22559;54.176;12.102;2022-11-12T07:18:38;19.03;;;11.40;;
36551;SDS011;22559;54.176;12.102;2022-11-12T07:21:07;17.73;;;10.67;;
36551;SDS011;22559;54.176;12.102;2022-11-12T07:23:34;21.07;;;11.10;;
36551;SDS011;22559;54.176;12.102;2022-11-12T07:26:02;26.60;;;10.80;;
36551;SDS011;22559;54.176;12.102;2022-11-12T07:28:28;17.03;;;10.60;;
36551;SDS011;22559;54.176;12.102;2022-11-12T07:30:58;17.67;;;10.50;;
36551;SDS011;22559;54.176;12.102;2022-11-12T07:33:26;21.07;;;10.90;;
36551;SDS011;22559;54.176;12.102;2022-11-12T07:35:56;20.10;;;11.07;;
36551;SDS011;22559;54.176;12.102;2022-11-12T07:38:27;18.10;;;10.67;;
36551;SDS011;22559;54.176;12.102;2022-11-12T07:41:03;19.20;;;10.70;;
36551;SDS011;22559;54.176;12.102;2022-11-12T07:43:30;17.40;;;11.73;;
36551;SDS011;22559;54.176;12.102;2022-11-12T07:46:01;17.63;;;10.73;;
36551;SDS011;22559;54.176;12.102;2022-11-12T07:48:28;15.97;;;10.83;;
36551;SDS011;22559;54.176;12.102;2022-11-12T07:50:59;20.20;;;12.27;;
36551;SDS011;22559;54.176;12.102;2022-11-12T07:53:29;18.50;;;10.50;;
36551;SDS011;22559;54.176;12.102;2022-11-12T07:55:56;21.97;;;10.57;;
36551;SDS011;22559;54.176;12.102;2022-11-12T07:58:23;18.57;;;10.33;;
36551;SDS011;22559;54.176;12.102;2022-11-12T08:00:50;20.17;;;10.93;;
36551;SDS011;22559;54.176;12.102;2022-11-12T08:03:17;15.80;;;9.73;;
36551;SDS011;22559;54.176;12.102;2022-11-12T08:05:43;18.13;;;9.30;;
36551;SDS011;22559;54.176;12.102;2022-11-12T08:08:09;13.70;;;10.17;;
36551;SDS011;22559;54.176;12.102;2022-11-12T08:10:35;21.60;;;10.10;;
36551;SDS011;22559;54.176;12.102;2022-11-12T08:13:01;19.00;;;10.83;;
36551;SDS011;22559;54.176;12.102;2022-11-12T08:15:27;17.07;;;10.10;;
36551;SDS011;22559;54.176;12.102;2022-11-12T08:17:52;15.23;;;9.87;;
36551;SDS011;22559;54.176;12.102;2022-11-12T08:20:18;17.60;;;9.80;;
36551;SDS011;22559;54.176;12.102;2022-11-12T08:22:44;17.20;;;9.50;;
36551;SDS011;22559;54.176;12.102;2022-11-12T08:25:09;14.60;;;9.70;;
36551;SDS011;22559;54.176;12.102;2022-11-12T08:27:35;18.17;;;10.23;;
36551;SDS011;22559;54.176;12.102;2022-11-12T08:30:01;17.67;;;9.80;;
36551;SDS011;22559;54.176;12.102;2022-11-12T08:32:27;14.63;;;10.03;;
36551;SDS011;22559;54.176;12.102;2022-11-12T08:34:53;13.03;;;9.70;;
36551;SDS011;22559;54.176;12.102;2022-11-12T08:37:18;17.53;;;10.40;;
36551;SDS011;22559;54.176;12.102;2022-11-12T08:39:44;20.77;;;14.47;;
36551;SDS011;22559;54.176;12.102;2022-11-12T08:42:09;16.37;;;9.33;;
36551;SDS011;22559;54.176;12.102;2022-11-12T08:44:35;17.67;;;12.37;;
36551;SDS011;22559;54.176;12.102;2022-11-12T08:47:01;16.23;;;11.00;;
36551;SDS011;22559;54.176;12.102;2022-11-12T08:49:26;14.37;;;9.20;;
36551;SDS011;22559;54.176;12.102;2022-11-12T08:51:53;23.70;;;12.17;;
36551;SDS011;22559;54.176;12.102;2022-11-12T08:54:19;22.87;;;12.87;;
36551;SDS011;22559;54.176;12.102;2022-11-12T08:56:45;22.13;;;16.03;;
36551;SDS011;22559;54.176;12.102;2022-11-12T08:59:11;17.80;;;9.83;;
36551;SDS011;22559;54.176;12.102;2022-11-12T09:01:36;15.67;;;8.77;;
36551;SDS011;22559;54.176;12.102;2022-11-12T09:04:02;16.07;;;8.60;;
36551;SDS011;22559;54.176;12.102;2022-11-12T09:06:28;18.73;;;9.50;;
36551;SDS011;22559;54.176;12.102;2022-11-12T09:08:54;14.37;;;8.13;;
36551;SDS011;22559;54.176;12.102;2022-11-12T09:11:20;15.37;;;9.17;;
36551;SDS011;22559;54.176;12.102;2022-11-12T09:13:45;18.73;;;8.33;;
36551;SDS011;22559;54.176;12.102;2022-11-12T09:16:11;13.23;;;7.67;;
36551;SDS011;22559;54.176;12.102;2022-11-12T09:18:37;14.17;;;7.50;;
36551;SDS011;22559;54.176;12.102;2022-11-12T09:21:03;17.33;;;8.10;;
36551;SDS011;22559;54.176;12.102;2022-11-12T09:23:32;11.93;;;8.27;;
36551;SDS011;22559;54.176;12.102;2022-11-12T09:25:58;12.13;;;7.17;;
36551;SDS011;22559;54.176;12.102;2022-11-12T09:28:24;16.60;;;7.57;;
36551;SDS011;22559;54.176;12.102;2022-11-12T09:30:50;12.97;;;7.07;;
36551;SDS011;22559;54.176;12.102;2022-11-12T09:33:28;8.87;;;6.83;;
36551;SDS011;22559;54.176;12.102;2022-11-12T09:35:58;10.47;;;7.33;;
36551;SDS011;22559;54.176;12.102;2022-11-12T09:38:25;8.53;;;6.70;;
36551;SDS011;22559;54.176;12.102;2022-11-12T09:43:28;9.70;;;6.80;;
36551;SDS011;22559;54.176;12.102;2022-11-12T09:45:56;11.70;;;7.00;;
36551;SDS011;22559;54.176;12.102;2022-11-12T09:48:31;9.47;;;6.10;;
36551;SDS011;22559;54.176;12.102;2022-11-12T09:51:09;13.13;;;7.13;;
36551;SDS011;22559;54.176;12.102;2022-11-12T09:53:59;11.77;;;6.63;;
36551;SDS011;22559;54.176;12.102;2022-11-12T09:56:30;9.90;;;6.17;;
36551;SDS011;22559;54.176;12.102;2022-11-12T09:58:56;11.07;;;6.73;;
36551;SDS011;22559;54.176;12.102;2022-11-12T10:04:33;8.90;;;6.40;;
36551;SDS011;22559;54.176;12.102;2022-11-12T10:18:28;8.10;;;5.13;;
36551;SDS011;22559;54.176;12.102;2022-11-12T10:23:46;9.60;;;6.03;;
36551;SDS011;22559;54.176;12.102;2022-11-12T10:26:16;9.00;;;5.70;;
36551;SDS011;22559;54.176;12.102;2022-11-12T10:31:31;13.40;;;6.57;;
36551;SDS011;22559;54.176;12.102;2022-11-12T10:34:07;10.30;;;6.87;;
36551;SDS011;22559;54.176;12.102;2022-11-12T10:36:39;9.50;;;6.50;;
36551;SDS011;22559;54.176;12.102;2022-11-12T10:42:13;19.00;;;13.47;;
36551;SDS011;22559;54.176;12.102;2022-11-12T10:44:43;15.67;;;8.80;;
36551;SDS011;22559;54.176;12.102;2022-11-12T10:50:10;12.83;;;8.00;;
36551;SDS011;22559;54.176;12.102;2022-11-12T10:53:01;8.30;;;6.70;;
36551;SDS011;22559;54.176;12.102;2022-11-12T10:55:29;17.93;;;7.80;;
36551;SDS011;22559;54.176;12.102;2022-11-12T11:00:35;10.13;;;7.63;;
36551;SDS011;22559;54.176;12.102;2022-11-12T11:03:15;12.63;;;7.93;;
36551;SDS011;22559;54.176;12.102;2022-11-12T11:06:04;11.03;;;7.80;;
36551;SDS011;22559;54.176;12.102;2022-11-12T11:13:40;12.40;;;7.87;;
36551;SDS011;22559;54.176;12.102;2022-11-12T11:16:08;10.10;;;7.30;;
36551;SDS011;22559;54.176;12.102;2022-11-12T11:18:40;9.03;;;7.23;;
36551;SDS011;22559;54.176;12.102;2022-11-12T11:27:03;13.87;;;7.27;;
36551;SDS011;22559;54.176;12.102;2022-11-12T11:42:26;13.83;;;6.77;;
36551;SDS011;22559;54.176;12.102;2022-11-12T11:50:26;9.97;;;6.27;;
36551;SDS011;22559;54.176;12.102;2022-11-12T11:53:19;7.30;;;5.73;;
36551;SDS011;22559;54.176;12.102;2022-11-12T12:03:47;7.53;;;5.73;;
36551;SDS011;22559;54.176;12.102;2022-11-12T12:06:27;8.53;;;5.87;;
36551;SDS011;22559;54.176;12.102;2022-11-12T12:11:37;11.67;;;7.07;;
36551;SDS011;22559;54.176;12.102;2022-11-12T12:23:49;8.97;;;4.87;;
36551;SDS011;22559;54.176;12.102;2022-11-12T12:25:58;8.27;;;4.50;;
36551;SDS011;22559;54.176;12.102;2022-11-12T12:28:35;7.93;;;4.30;;
36551;SDS011;22559;54.176;12.102;2022-11-12T12:31:08;9.10;;;4.63;;
36551;SDS011;22559;54.176;12.102;2022-11-12T12:33:43;8.30;;;3.90;;
36551;SDS011;22559;54.176;12.102;2022-11-12T12:36:25;7.87;;;4.40;;
36551;SDS011;22559;54.176;12.102;2022-11-12T12:39:10;9.03;;;4.10;;
36551;SDS011;22559;54.176;12.102;2022-11-12T12:42:11;4.73;;;4.00;;
36551;SDS011;22559;54.176;12.102;2022-11-12T12:44:52;7.97;;;4.53;;
36551;SDS011;22559;54.176;12.102;2022-11-12T12:47:34;8.87;;;4.80;;
36551;SDS011;22559;54.176;12.102;2022-11-12T12:50:04;9.07;;;4.57;;
36551;SDS011;22559;54.176;12.102;2022-11-12T12:53:29;10.00;;;6.47;;
36551;SDS011;22559;54.176;12.102;2022-11-12T12:58:01;12.37;;;8.17;;
36551;SDS011;22559;54.176;12.102;2022-11-12T13:00:31;28.27;;;15.17;;
36551;SDS011;22559;54.176;12.102;2022-11-12T13:03:00;13.43;;;8.53;;
36551;SDS011;22559;54.176;12.102;2022-11-12T13:05:29;16.50;;;10.13;;
36551;SDS011;22559;54.176;12.102;2022-11-12T13:08:00;13.00;;;7.73;;
36551;SDS011;22559;54.176;12.102;2022-11-12T13:15:46;9.97;;;5.90;;
36551;SDS011;22559;54.176;12.102;2022-11-12T13:18:55;6.67;;;5.67;;
36551;SDS011;22559;54.176;12.102;2022-11-12T13:23:45;10.57;;;5.80;;
36551;SDS011;22559;54.176;12.102;2022-11-12T13:29:21;7.20;;;5.73;;
36551;SDS011;22559;54.176;12.102;2022-11-12T13:38:00;8.20;;;5.40;;
36551;SDS011;22559;54.176;12.102;2022-11-12T13:43:40;14.10;;;7.17;;
36551;SDS011;22559;54.176;12.102;2022-11-12T13:48:37;6.07;;;5.20;;
36551;SDS011;22559;54.176;12.102;2022-11-12T13:53:50;8.90;;;6.23;;
36551;SDS011;22559;54.176;12.102;2022-11-12T13:58:54;9.73;;;7.40;;
36551;SDS011;22559;54.176;12.102;2022-11-12T14:01:20;9.20;;;6.17;;
36551;SDS011;22559;54.176;12.102;2022-11-12T14:03:48;7.17;;;5.17;;
36551;SDS011;22559;54.176;12.102;2022-11-12T14:06:16;12.77;;;5.90;;
36551;SDS011;22559;54.176;12.102;2022-11-12T14:14:24;3.90;;;3.00;;
36551;SDS011;22559;54.176;12.102;2022-11-12T14:22:44;4.23;;;2.70;;
36551;SDS011;22559;54.176;12.102;2022-11-12T14:25:20;5.73;;;2.83;;
36551;SDS011;22559;54.176;12.102;2022-11-12T14:27:51;3.97;;;3.40;;
36551;SDS011;22559;54.176;12.102;2022-11-12T14:30:28;5.37;;;4.87;;
36551;SDS011;22559;54.176;12.102;2022-11-12T14:33:06;5.03;;;3.50;;
36551;SDS011;22559;54.176;12.102;2022-11-12T14:35:36;4.73;;;3.03;;
36551;SDS011;22559;54.176;12.102;2022-11-12T14:40:51;5.53;;;4.13;;
36551;SDS011;22559;54.176;12.102;2022-11-12T14:45:56;4.73;;;3.03;;
36551;SDS011;22559;54.176;12.102;2022-11-12T14:48:25;4.83;;;3.03;;
36551;SDS011;22559;54.176;12.102;2022-11-12T14:50:54;5.83;;;3.10;;
36551;SDS011;22559;54.176;12.102;2022-11-12T14:53:28;3.97;;;2.80;;
36551;SDS011;22559;54.176;12.102;2022-11-12T14:56:01;3.03;;;2.57;;
36551;SDS011;22559;54.176;12.102;2022-11-12T14:58:28;6.23;;;3.10;;
36551;SDS011;22559;54.176;12.102;2022-11-12T15:00:55;5.37;;;3.27;;
36551;SDS011;22559;54.176;12.102;2022-11-12T15:03:22;4.47;;;3.10;;
36551;SDS011;22559;54.176;12.102;2022-11-12T15:05:53;5.10;;;3.50;;
36551;SDS011;22559;54.176;12.102;2022-11-12T15:08:30;4.07;;;3.27;;
36551;SDS011;22559;54.176;12.102;2022-11-12T15:13:48;2.97;;;2.70;;
36551;SDS011;22559;54.176;12.102;2022-11-12T15:16:22;3.47;;;3.17;;
36551;SDS011;22559;54.176;12.102;2022-11-12T15:18:57;4.57;;;3.60;;
36551;SDS011;22559;54.176;12.102;2022-11-12T15:21:27;7.30;;;3.70;;
36551;SDS011;22559;54.176;12.102;2022-11-12T15:23:57;5.23;;;3.03;;
36551;SDS011;22559;54.176;12.102;2022-11-12T15:26:42;6.10;;;4.60;;
36551;SDS011;22559;54.176;12.102;2022-11-12T15:31:55;3.43;;;3.13;;
36551;SDS011;22559;54.176;12.102;2022-11-12T15:37:24;6.47;;;3.80;;
36551;SDS011;22559;54.176;12.102;2022-11-12T15:39:55;3.50;;;3.20;;
36551;SDS011;22559;54.176;12.102;2022-11-12T15:44:57;6.13;;;3.83;;
36551;SDS011;22559;54.176;12.102;2022-11-12T15:47:25;5.47;;;3.80;;
36551;SDS011;22559;54.176;12.102;2022-11-12T15:49:52;4.63;;;3.60;;
36551;SDS011;22559;54.176;12.102;2022-11-12T15:52:19;3.53;;;3.23;;
36551;SDS011;22559;54.176;12.102;2022-11-12T15:54:45;4.07;;;3.77;;
36551;SDS011;22559;54.176;12.102;2022-11-12T15:57:12;4.97;;;3.60;;
36551;SDS011;22559;54.176;12.102;2022-11-12T15:59:41;3.83;;;3.47;;
36551;SDS011;22559;54.176;12.102;2022-11-12T16:02:13;3.93;;;3.37;;
36551;SDS011;22559;54.176;12.102;2022-11-12T16:04:39;7.77;;;4.00;;
36551;SDS011;22559;54.176;12.102;2022-11-12T16:07:05;3.70;;;3.23;;
36551;SDS011;22559;54.176;12.102;2022-11-12T16:09:32;4.23;;;3.30;;
36551;SDS011;22559;54.176;12.102;2022-11-12T16:11:58;8.23;;;5.77;;
36551;SDS011;22559;54.176;12.102;2022-11-12T16:14:25;9.17;;;6.30;;
36551;SDS011;22559;54.176;12.102;2022-11-12T16:16:51;7.07;;;5.90;;
36551;SDS011;22559;54.176;12.102;2022-11-12T16:19:17;7.10;;;4.97;;
36551;SDS011;22559;54.176;12.102;2022-11-12T16:21:43;11.27;;;7.20;;
36551;SDS011;22559;54.176;12.102;2022-11-12T16:24:08;12.33;;;8.27;;
36551;SDS011;22559;54.176;12.102;2022-11-12T16:26:34;13.37;;;9.03;;
36551;SDS011;22559;54.176;12.102;2022-11-12T16:29:02;12.70;;;9.33;;
36551;SDS011;22559;54.176;12.102;2022-11-12T16:31:33;13.00;;;9.73;;
36551;SDS011;22559;54.176;12.102;2022-11-12T16:33:59;18.07;;;10.97;;
36551;SDS011;22559;54.176;12.102;2022-11-12T16:36:24;16.83;;;10.63;;
36551;SDS011;22559;54.176;12.102;2022-11-12T16:38:50;17.30;;;10.50;;
36551;SDS011;22559;54.176;12.102;2022-11-12T16:41:15;15.83;;;10.17;;
36551;SDS011;22559;54.176;12.102;2022-11-12T16:43:41;16.43;;;10.43;;
36551;SDS011;22559;54.176;12.102;2022-11-12T16:48:55;19.37;;;11.80;;
36551;SDS011;22559;54.176;12.102;2022-11-12T16:51:21;20.23;;;11.97;;
36551;SDS011;22559;54.176;12.102;2022-11-12T16:53:47;19.80;;;12.00;;
36551;SDS011;22559;54.176;12.102;2022-11-12T16:56:15;19.97;;;11.50;;